Time;durP1;ratioP1;P1;durP2;ratioP2;P2;SDS_P1;SDS_P2;PMS_P1;PMS_P2;Temp;Humidity;BMP_temperature;BMP_pressure;BME280_temperature;BME280_humidity;BME280_pressure;Samples;Min_cycle;Max_cycle;Signal;HPM_P1;HPM_P2
2023/01/31 00:00:43;;;;;;;124.32;58.65;;;;;;;11.63;88.79;99581.97;5061831;28;20158;-68
2023/01/31 00:03:25;;;;;;;110.05;58.15;;;;;;;11.64;88.69;99580.94;5065214;28;20111;-68
2023/01/31 00:06:27;;;;;;;118.72;59.70;;;;;;;11.64;89.13;99582.78;5041488;28;20148;-68
2023/01/31 00:09:12;;;;;;;125.03;63.60;;;;;;;11.61;88.74;99578.66;5031937;28;20078;-69
2023/01/31 00:12:00;;;;;;;130.85;64.32;;;;;;;11.65;89.17;99584.44;5045280;28;20056;-68
2023/01/31 00:14:42;;;;;;;145.65;67.70;;;;;;;11.72;89.30;99588.06;5028551;28;20149;-68
2023/01/31 00:17:37;;;;;;;133.77;67.65;;;;;;;11.81;88.97;99594.13;5064652;27;20044;-67
2023/01/31 00:20:26;;;;;;;141.00;68.53;;;;;;;11.66;88.58;99578.97;5062130;28;20044;-67
2023/01/31 00:23:15;;;;;;;155.38;68.18;;;;;;;11.68;88.31;99584.09;5047412;28;20128;-68
2023/01/31 00:26:07;;;;;;;146.25;66.40;;;;;;;11.57;88.59;99574.72;5073264;28;20110;-67
2023/01/31 00:28:59;;;;;;;166.35;69.95;;;;;;;11.56;88.43;99581.00;5044979;28;20789;-67
2023/01/31 00:31:42;;;;;;;165.40;67.75;;;;;;;11.59;88.39;99580.69;5063201;28;20060;-68
2023/01/31 00:34:30;;;;;;;153.63;66.40;;;;;;;11.64;88.59;99573.00;5046548;28;20135;-68
2023/01/31 00:37:12;;;;;;;165.07;70.45;;;;;;;11.58;88.00;99581.69;5053722;28;20055;-68
2023/01/31 00:40:03;;;;;;;170.98;68.38;;;;;;;11.61;88.05;99575.19;5059000;28;20053;-68
2023/01/31 00:42:45;;;;;;;157.65;67.38;;;;;;;11.62;87.69;99571.53;5056947;28;20076;-68
2023/01/31 00:45:34;;;;;;;164.60;69.32;;;;;;;11.49;87.29;99572.13;5075795;28;20036;-67
2023/01/31 00:48:17;;;;;;;159.63;66.40;;;;;;;11.40;87.73;99581.13;5033207;28;20511;-67
2023/01/31 00:51:06;;;;;;;157.98;65.15;;;;;;;11.39;87.54;99582.13;5056252;28;20419;-68
2023/01/31 00:53:49;;;;;;;157.90;64.30;;;;;;;11.48;87.67;99583.72;5044323;28;20045;-66
2023/01/31 00:56:38;;;;;;;155.48;64.05;;;;;;;11.51;87.42;99578.06;5054029;28;20079;-67
2023/01/31 00:59:20;;;;;;;142.40;63.92;;;;;;;11.46;87.55;99574.31;5064365;28;20118;-66
2023/01/31 01:02:09;;;;;;;154.95;63.85;;;;;;;11.60;87.26;99587.63;5046677;28;20052;-66
2023/01/31 01:04:52;;;;;;;159.73;63.50;;;;;;;11.52;86.68;99592.16;5061283;28;20058;-68
2023/01/31 01:07:41;;;;;;;161.70;67.00;;;;;;;11.38;86.97;99585.78;5062972;28;20465;-66
2023/01/31 01:10:23;;;;;;;151.48;65.72;;;;;;;11.50;86.81;99589.69;5047416;28;20167;-67
2023/01/31 01:13:13;;;;;;;149.82;65.60;;;;;;;11.61;86.42;99591.09;5048325;28;20501;-66
2023/01/31 01:15:55;;;;;;;154.90;65.55;;;;;;;11.59;86.65;99603.72;5047037;28;20132;-66
2023/01/31 01:18:53;;;;;;;134.57;63.45;;;;;;;11.49;86.15;99601.31;5078793;27;20115;-66
2023/01/31 01:21:43;;;;;;;136.43;63.25;;;;;;;11.63;85.42;99599.72;5046236;28;20044;-66
2023/01/31 01:24:31;;;;;;;136.05;59.47;;;;;;;11.68;85.22;99602.66;5066277;28;20062;-65
2023/01/31 01:27:14;;;;;;;128.90;62.20;;;;;;;11.74;84.57;99598.50;5048451;28;20126;-66
2023/01/31 01:30:04;;;;;;;136.45;62.63;;;;;;;11.67;84.47;99601.84;5043602;28;20596;-65
2023/01/31 01:32:47;;;;;;;135.35;62.88;;;;;;;11.54;84.17;99604.25;5049497;28;20114;-66
2023/01/31 01:35:37;;;;;;;114.65;57.20;;;;;;;11.63;84.53;99605.03;5047955;28;20817;-65
2023/01/31 01:38:20;;;;;;;100.80;52.23;;;;;;;11.62;83.82;99603.38;5049988;28;20056;-66
2023/01/31 01:41:11;;;;;;;95.53;48.45;;;;;;;11.46;83.61;99604.28;5055707;28;20519;-65
2023/01/31 01:44:03;;;;;;;88.13;46.95;;;;;;;11.47;84.57;99605.13;5048354;28;20049;-67
2023/01/31 01:46:49;;;;;;;90.40;45.08;;;;;;;11.49;84.31;99611.09;5071157;28;20052;-65
2023/01/31 01:49:38;;;;;;;85.93;44.75;;;;;;;11.62;83.99;99614.81;5067089;28;20048;-65
2023/01/31 01:52:22;;;;;;;87.82;45.03;;;;;;;11.51;83.98;99622.34;5048585;28;20069;-66
2023/01/31 01:55:26;;;;;;;79.35;45.83;;;;;;;11.51;83.90;99623.16;5060056;28;20044;-65
2023/01/31 01:58:28;;;;;;;99.25;48.35;;;;;;;11.53;83.72;99628.31;5064554;28;20360;-66
2023/01/31 02:01:18;;;;;;;104.78;52.63;;;;;;;11.33;84.06;99625.25;5032091;28;20463;-66
2023/01/31 02:04:00;;;;;;;104.95;49.20;;;;;;;11.42;84.27;99631.38;5028567;28;20036;-68
2023/01/31 02:06:51;;;;;;;98.43;50.33;;;;;;;11.34;83.78;99634.03;5030594;28;20098;-66
2023/01/31 02:09:43;;;;;;;98.35;49.15;;;;;;;11.33;84.58;99641.16;5066612;28;20048;-67
2023/01/31 02:12:26;;;;;;;99.30;47.63;;;;;;;11.33;84.26;99633.22;5058426;28;20056;-66
2023/01/31 02:15:15;;;;;;;104.35;52.13;;;;;;;11.10;84.23;99624.41;5054034;28;20169;-67
2023/01/31 02:18:04;;;;;;;98.03;49.95;;;;;;;11.24;83.72;99637.72;5043533;28;20056;-67
2023/01/31 02:21:17;;;;;;;100.28;49.70;;;;;;;11.30;84.70;99633.56;5063935;28;20052;-66
2023/01/31 02:24:33;;;;;;;102.40;50.58;;;;;;;11.27;84.61;99636.59;5048272;28;20053;-66
2023/01/31 02:27:46;;;;;;;102.43;51.67;;;;;;;11.17;84.54;99630.66;5064896;28;20044;-68
2023/01/31 02:30:41;;;;;;;108.45;52.25;;;;;;;11.14;84.85;99638.97;5067220;28;20063;-67
2023/01/31 02:33:37;;;;;;;100.65;53.28;;;;;;;11.17;85.19;99638.59;5034870;28;20147;-68
2023/01/31 02:36:26;;;;;;;106.30;54.70;;;;;;;11.30;85.28;99636.22;5016865;28;20067;-67
2023/01/31 02:39:38;;;;;;;111.22;54.95;;;;;;;11.52;84.45;99648.69;5030448;28;20045;-67
2023/01/31 02:42:40;;;;;;;107.70;54.10;;;;;;;11.53;84.39;99655.66;5041788;28;20483;-67
2023/01/31 02:45:48;;;;;;;111.03;55.90;;;;;;;11.56;84.12;99657.13;5064423;28;20056;-67
2023/01/31 02:48:59;;;;;;;101.38;52.65;;;;;;;11.49;83.88;99657.00;5044612;28;20040;-67
2023/01/31 02:52:14;;;;;;;;;;;;;;;11.50;83.99;99663.97;5067113;28;20074;-67
2023/01/31 02:58:13;;;;;;;98.70;51.33;;;;;;;11.68;83.96;99677.75;5039150;28;20056;-68
2023/01/31 03:01:06;;;;;;;97.37;53.03;;;;;;;11.75;84.06;99675.28;5064569;28;20404;-67
2023/01/31 03:03:48;;;;;;;92.57;48.63;;;;;;;11.98;82.84;99680.59;5059878;28;20056;-67
2023/01/31 03:06:37;;;;;;;96.10;48.25;;;;;;;11.93;83.33;99688.25;5048881;28;20063;-67
2023/01/31 03:09:59;;;;;;;97.72;50.75;;;;;;;12.03;82.28;99678.25;5046319;28;20574;-67
2023/01/31 03:13:00;;;;;;;89.88;47.55;;;;;;;12.17;82.21;99703.19;5034268;28;20087;-67
2023/01/31 03:19:25;;;;;;;89.60;47.28;;;;;;;12.57;81.15;99721.41;5056849;27;20045;-67
2023/01/31 03:22:25;;;;;;;95.00;48.20;;;;;;;12.52;80.95;99734.44;5046513;28;20063;-68
2023/01/31 03:25:17;;;;;;;84.28;45.00;;;;;;;12.57;79.97;99735.53;5040821;28;20052;-67
2023/01/31 03:28:12;;;;;;;90.25;45.97;;;;;;;12.82;79.82;99740.63;5029051;28;20056;-67
2023/01/31 03:31:12;;;;;;;80.63;41.88;;;;;;;13.11;78.59;99751.31;5032710;28;20079;-67
2023/01/31 03:34:05;;;;;;;81.10;39.78;;;;;;;13.28;77.90;99752.78;5045770;28;20114;-67
2023/01/31 03:37:09;;;;;;;80.13;41.42;;;;;;;13.62;75.68;99757.56;5047832;28;20131;-67
2023/01/31 03:40:05;;;;;;;71.45;39.42;;;;;;;13.86;75.01;99767.84;5081539;28;20068;-67
2023/01/31 03:42:59;;;;;;;66.50;36.50;;;;;;;13.98;73.24;99770.88;4997396;28;20383;-67
2023/01/31 03:45:47;;;;;;;65.88;33.25;;;;;;;13.93;73.26;99767.94;5043831;28;20041;-65
2023/01/31 03:48:40;;;;;;;61.35;33.47;;;;;;;14.12;73.07;99769.16;5047008;28;20044;-68
2023/01/31 03:51:29;;;;;;;63.85;34.00;;;;;;;14.31;71.93;99769.38;5036936;28;20053;-66
2023/01/31 03:54:25;;;;;;;65.50;33.20;;;;;;;14.45;72.23;99777.53;5045254;28;20047;-66
2023/01/31 03:57:15;;;;;;;64.43;37.83;;;;;;;14.61;71.04;99778.06;5040137;28;20040;-65
2023/01/31 04:00:06;;;;;;;72.13;38.72;;;;;;;14.81;70.73;99781.75;5048788;28;20074;-65
2023/01/31 04:03:03;;;;;;;83.07;37.58;;;;;;;15.09;70.73;99789.72;5027986;28;20033;-66
2023/01/31 04:05:52;;;;;;;73.60;37.60;;;;;;;15.56;69.02;99791.72;5034101;28;20083;-65
2023/01/31 04:08:36;;;;;;;68.25;37.70;;;;;;;16.01;68.01;99790.25;5032401;28;20129;-65
2023/01/31 04:11:30;;;;;;;74.25;38.55;;;;;;;16.17;66.28;99787.22;5047671;28;20045;-67
2023/01/31 04:14:12;;;;;;;74.32;37.42;;;;;;;16.14;66.58;99798.31;5048597;28;20059;-67
2023/01/31 04:17:01;;;;;;;67.93;36.63;;;;;;;16.07;67.15;99797.44;5065198;28;20044;-65
2023/01/31 04:19:43;;;;;;;74.88;39.20;;;;;;;16.33;67.14;99799.38;5064867;27;20044;-68
2023/01/31 04:22:32;;;;;;;69.10;38.75;;;;;;;16.64;66.41;99811.41;5064515;28;20052;-67
2023/01/31 04:25:14;;;;;;;76.72;39.85;;;;;;;16.79;65.72;99817.38;5080825;28;20056;-67
2023/01/31 04:28:03;;;;;;;72.82;38.58;;;;;;;17.45;64.50;99818.13;5076366;28;20135;-66
2023/01/31 04:30:45;;;;;;;65.53;38.00;;;;;;;17.36;63.35;99825.56;5085201;28;20044;-66
2023/01/31 04:33:34;;;;;;;70.68;39.28;;;;;;;18.04;62.97;99831.38;5066934;28;20049;-65
2023/01/31 04:36:17;;;;;;;76.90;40.00;;;;;;;17.83;61.78;99842.41;5071537;28;20048;-66
2023/01/31 04:39:06;;;;;;;75.45;40.72;;;;;;;17.74;62.40;99832.94;5083984;28;20055;-66
2023/01/31 04:41:48;;;;;;;65.28;38.05;;;;;;;18.21;59.94;99842.44;5066942;28;20052;-65
2023/01/31 04:44:37;;;;;;;74.63;38.28;;;;;;;18.35;61.38;99834.13;5084457;28;20063;-65
2023/01/31 04:47:19;;;;;;;75.60;39.95;;;;;;;18.33;59.26;99844.22;5084447;28;20454;-66
2023/01/31 04:50:08;;;;;;;70.05;37.85;;;;;;;18.50;60.38;99847.22;5066085;28;20055;-67
2023/01/31 04:52:51;;;;;;;68.20;39.17;;;;;;;18.40;59.64;99844.19;5084814;28;20463;-65
2023/01/31 04:55:39;;;;;;;61.08;35.78;;;;;;;19.10;59.19;99831.53;5084648;28;20064;-65
2023/01/31 04:58:22;;;;;;;67.25;38.70;;;;;;;18.94;57.61;99829.41;5084044;28;20134;-62
2023/01/31 05:01:10;;;;;;;66.07;36.08;;;;;;;18.89;58.05;99819.34;5068644;28;20871;-65
2023/01/31 05:03:52;;;;;;;64.53;35.58;;;;;;;19.10;58.49;99818.94;5084553;28;20133;-61
2023/01/31 05:06:41;;;;;;;70.13;37.92;;;;;;;19.08;57.42;99818.31;5084569;28;20131;-62
2023/01/31 05:09:17;;;;;;;53.75;31.58;;;;;;;19.59;55.86;99819.94;5075151;28;20044;-64
2023/01/31 05:12:13;;;;;;;49.55;31.38;;;;;;;19.36;56.23;99825.94;5085188;28;20603;-64
2023/01/31 05:14:50;;;;;;;54.78;33.78;;;;;;;19.41;57.98;99822.56;5084768;28;20067;-64
2023/01/31 05:17:38;;;;;;;51.90;33.00;;;;;;;20.16;56.03;99824.00;5084250;28;20109;-64
2023/01/31 05:20:37;;;;;;;70.63;37.35;;;;;;;19.74;55.97;99815.81;5084104;28;20383;-63
2023/01/31 05:23:25;;;;;;;73.35;39.83;;;;;;;19.84;56.65;99809.91;5083779;28;20369;-62
2023/01/31 05:26:14;;;;;;;70.40;39.30;;;;;;;19.91;56.05;99807.16;5083232;28;20152;-62
2023/01/31 05:28:56;;;;;;;72.40;40.95;;;;;;;20.07;55.11;99804.66;5084474;28;20151;-62
2023/01/31 05:31:45;;;;;;;67.50;40.05;;;;;;;20.14;55.13;99796.50;5084307;28;20140;-62
2023/01/31 05:34:31;;;;;;;69.18;39.25;;;;;;;19.91;55.42;99789.16;5082669;28;20060;-62
2023/01/31 05:37:20;;;;;;;65.30;38.75;;;;;;;20.23;54.94;99776.31;5093644;28;20129;-64
2023/01/31 05:40:02;;;;;;;67.47;39.15;;;;;;;20.49;54.90;99792.09;5067548;28;20048;-62
2023/01/31 05:42:52;;;;;;;74.90;39.58;;;;;;;20.44;54.37;99788.47;5071922;28;20128;-63
2023/01/31 05:45:34;;;;;;;71.47;40.05;;;;;;;20.67;55.54;99785.03;5079907;28;20090;-62
2023/01/31 05:48:23;;;;;;;71.22;41.03;;;;;;;20.63;55.75;99781.94;5066832;28;20388;-62
2023/01/31 05:51:05;;;;;;;72.93;39.40;;;;;;;20.60;53.45;99785.09;5078293;28;20044;-61
2023/01/31 05:53:54;;;;;;;67.30;38.78;;;;;;;20.37;55.08;99777.78;5103627;28;20058;-61
2023/01/31 05:56:38;;;;;;;73.00;41.08;;;;;;;20.37;54.89;99769.72;5093767;28;20478;-63
2023/01/31 05:59:29;;;;;;;67.25;39.10;;;;;;;20.54;54.79;99767.19;5070174;28;20052;-61
2023/01/31 06:02:11;;;;;;;68.22;41.05;;;;;;;20.52;54.60;99767.44;5077290;28;20594;-59
2023/01/31 06:05:00;;;;;;;68.10;40.78;;;;;;;20.94;54.98;99765.47;5084460;28;20052;-61
2023/01/31 06:07:49;;;;;;;67.65;39.80;;;;;;;20.71;55.43;99773.56;5084219;28;20059;-62
2023/01/31 06:10:32;;;;;;;72.60;41.90;;;;;;;20.68;55.34;99765.09;5073359;28;20163;-60
2023/01/31 06:13:27;;;;;;;72.90;42.90;;;;;;;20.72;54.54;99760.88;5084469;28;20056;-63
2023/01/31 06:16:03;;;;;;;66.53;42.65;;;;;;;20.48;53.97;99755.47;5088168;28;20424;-63
2023/01/31 06:18:58;;;;;;;71.47;43.83;;;;;;;21.15;53.63;99756.03;5081335;28;20651;-63
2023/01/31 06:21:34;;;;;;;76.15;44.50;;;;;;;21.25;53.80;99747.34;5079091;28;20053;-66
2023/01/31 06:24:24;;;;;;;68.68;41.17;;;;;;;20.90;53.57;99748.16;5080393;28;20344;-65
2023/01/31 06:27:13;;;;;;;67.65;42.88;;;;;;;21.52;52.57;99741.22;5094063;28;20143;-65
2023/01/31 06:29:55;;;;;;;69.20;42.75;;;;;;;21.25;52.25;99744.66;5072162;28;20110;-67
2023/01/31 06:32:44;;;;;;;70.03;44.13;;;;;;;20.83;54.81;99746.63;5067482;28;20655;-65
2023/01/31 06:35:26;;;;;;;68.80;42.72;;;;;;;21.02;53.80;99738.19;5081885;28;20044;-66
2023/01/31 06:38:15;;;;;;;65.18;40.63;;;;;;;21.14;52.78;99735.53;5087501;28;20507;-64
2023/01/31 06:40:58;;;;;;;51.28;30.33;;;;;;;21.01;52.54;99735.75;5069618;28;20048;-66
2023/01/31 06:43:46;;;;;;;45.83;29.40;;;;;;;20.90;53.10;99723.91;5067227;28;20044;-69
2023/01/31 06:46:28;;;;;;;44.00;28.13;;;;;;;21.18;52.14;99731.31;5087160;28;20558;-61
2023/01/31 06:49:17;;;;;;;41.95;27.95;;;;;;;20.84;51.61;99724.03;5092397;28;20678;-64
2023/01/31 06:52:06;;;;;;;40.97;26.40;;;;;;;20.84;52.64;99714.09;5068274;28;20052;-61
2023/01/31 06:54:48;;;;;;;40.88;27.35;;;;;;;21.27;52.50;99719.13;5081019;28;20052;-62
2023/01/31 06:57:54;;;;;;;40.50;27.25;;;;;;;21.38;50.83;99720.97;5087680;28;20048;-62
2023/01/31 07:00:30;;;;;;;36.67;25.00;;;;;;;21.10;51.89;99722.75;5069197;28;20052;-60
2023/01/31 07:03:25;;;;;;;39.65;25.95;;;;;;;21.25;51.03;99709.63;5085848;28;20056;-60
2023/01/31 07:06:01;;;;;;;39.03;26.45;;;;;;;20.89;51.34;99708.81;5081226;28;20048;-60
2023/01/31 07:08:50;;;;;;;44.40;27.08;;;;;;;21.08;52.29;99699.53;5083673;28;20131;-64
2023/01/31 07:11:32;;;;;;;43.05;27.83;;;;;;;21.00;51.65;99685.63;5081658;28;20053;-65
2023/01/31 07:14:27;;;;;;;44.10;26.20;;;;;;;20.98;50.87;99683.16;5070261;28;20048;-67
2023/01/31 07:17:03;;;;;;;44.17;25.27;;;;;;;20.84;51.32;99678.25;5079135;28;20125;-60
2023/01/31 07:19:59;;;;;;;41.42;27.33;;;;;;;21.04;51.55;99670.63;5085807;28;20055;-65
2023/01/31 07:22:35;;;;;;;42.38;26.83;;;;;;;20.94;51.42;99662.31;5086575;28;20044;-61
2023/01/31 07:25:33;;;;;;;39.65;27.20;;;;;;;21.12;52.28;99650.56;5080750;28;20052;-62
2023/01/31 07:28:10;;;;;;;38.85;25.05;;;;;;;20.73;51.00;99650.28;5084798;28;20478;-63
2023/01/31 07:31:12;;;;;;;36.72;25.40;;;;;;;20.92;52.20;99637.50;5067895;28;20055;-62
2023/01/31 07:33:54;;;;;;;37.90;26.67;;;;;;;20.89;50.62;99638.78;5083476;28;20051;-62
2023/01/31 07:36:49;;;;;;;36.67;23.85;;;;;;;20.79;50.33;99630.50;5066361;28;20059;-61
2023/01/31 07:39:25;;;;;;;36.58;24.83;;;;;;;20.89;50.75;99632.59;5073648;28;20052;-66
2023/01/31 07:42:20;;;;;;;40.72;26.27;;;;;;;20.45;50.86;99626.75;5076053;28;20056;-65
2023/01/31 07:44:56;;;;;;;42.55;25.67;;;;;;;20.61;52.07;99615.31;5069634;28;20063;-66
2023/01/31 07:48:10;;;;;;;44.53;25.92;;;;;;;20.84;50.93;99608.25;5051961;28;20052;-66
2023/01/31 07:50:46;;;;;;;35.58;23.33;;;;;;;20.90;50.06;99604.59;5067486;28;20048;-65
2023/01/31 07:53:43;;;;;;;39.35;24.83;;;;;;;20.76;51.07;99597.81;5078493;28;20537;-65
2023/01/31 07:56:20;;;;;;;32.72;24.15;;;;;;;20.85;50.60;99597.22;5071574;28;20080;-65
2023/01/31 07:59:16;;;;;;;34.78;22.77;;;;;;;20.72;50.04;99600.16;5066563;28;20427;-66
2023/01/31 08:05:06;;;;;;;33.72;22.27;;;;;;;20.43;50.90;99596.59;5071925;28;20071;-65
2023/01/31 08:07:42;;;;;;;36.05;24.00;;;;;;;20.59;50.15;99587.78;5074399;28;20051;-66
2023/01/31 08:10:39;;;;;;;36.63;23.83;;;;;;;20.48;50.20;99575.16;5058080;28;20052;-66
2023/01/31 08:13:15;;;;;;;35.67;22.90;;;;;;;20.47;51.60;99583.47;5073277;28;20041;-66
2023/01/31 08:16:12;;;;;;;35.17;24.77;;;;;;;20.43;51.21;99577.75;5069881;28;20117;-67
2023/01/31 08:18:54;;;;;;;34.90;23.65;;;;;;;20.58;51.41;99570.00;5073308;28;20062;-66
2023/01/31 08:21:43;;;;;;;35.13;23.92;;;;;;;20.51;52.61;99561.25;5073185;28;20048;-65
2023/01/31 08:24:25;;;;;;;38.25;23.50;;;;;;;20.58;51.37;99564.59;5084307;28;20052;-66
2023/01/31 08:27:15;;;;;;;38.25;23.63;;;;;;;20.47;51.16;99560.06;5084123;28;20787;-65
2023/01/31 08:30:07;;;;;;;33.08;21.67;;;;;;;20.45;49.83;99553.28;5084976;28;20498;-67
2023/01/31 08:32:56;;;;;;;33.53;22.50;;;;;;;20.39;51.20;99565.00;5083864;28;20534;-65
2023/01/31 08:35:38;;;;;;;35.83;23.60;;;;;;;20.39;51.77;99556.91;5085042;28;20063;-66
2023/01/31 08:38:28;;;;;;;39.75;24.42;;;;;;;20.61;51.05;99556.09;5077379;28;20113;-66
2023/01/31 08:41:13;;;;;;;45.47;22.63;;;;;;;20.67;50.41;99551.59;5075916;28;20082;-65
2023/01/31 08:44:03;;;;;;;35.67;21.90;;;;;;;20.45;50.56;99559.47;5073094;28;20066;-66
2023/01/31 08:46:45;;;;;;;33.38;21.65;;;;;;;20.28;51.02;99555.81;5072502;28;20067;-66
2023/01/31 08:49:35;;;;;;;36.38;23.38;;;;;;;20.24;50.64;99548.47;5075755;28;20071;-65
2023/01/31 08:52:17;;;;;;;32.13;22.73;;;;;;;20.39;49.87;99540.78;5070824;28;20542;-66
2023/01/31 08:55:08;;;;;;;35.50;23.30;;;;;;;20.23;50.54;99538.75;5071339;28;20057;-66
2023/01/31 08:57:51;;;;;;;36.80;23.83;;;;;;;20.22;50.96;99537.13;5071233;28;20064;-64
2023/01/31 09:00:40;;;;;;;36.60;23.55;;;;;;;20.29;52.13;99533.25;5074095;28;20052;-65
2023/01/31 09:03:35;;;;;;;44.95;25.25;;;;;;;20.23;49.97;99522.59;5073757;28;20135;-65
2023/01/31 09:06:20;;;;;;;33.83;22.90;;;;;;;20.14;50.72;99527.53;5073289;28;20076;-64
2023/01/31 09:09:09;;;;;;;33.53;22.08;;;;;;;20.03;50.40;99525.66;5075341;28;20040;-65
2023/01/31 09:11:52;;;;;;;34.25;23.80;;;;;;;19.89;50.73;99524.25;5071695;28;20062;-65
2023/01/31 09:14:47;;;;;;;35.72;23.88;;;;;;;19.86;52.03;99522.84;5075308;28;20367;-65
2023/01/31 09:17:23;;;;;;;39.75;24.40;;;;;;;19.82;52.00;99519.00;5071387;28;20044;-65
2023/01/31 09:20:19;;;;;;;36.75;24.25;;;;;;;19.74;52.00;99519.31;5068780;28;20141;-66
2023/01/31 09:22:55;;;;;;;39.28;25.38;;;;;;;19.70;51.56;99507.38;5063953;28;20522;-65
2023/01/31 09:25:50;;;;;;;40.38;25.52;;;;;;;19.62;52.45;99513.94;5063658;28;20044;-65
2023/01/31 09:28:44;;;;;;;36.40;25.02;;;;;;;19.66;52.03;99508.91;5060262;28;20072;-65
2023/01/31 09:31:38;;;;;;;41.22;24.45;;;;;;;19.84;52.39;99502.59;5059006;28;20040;-65
2023/01/31 09:34:15;;;;;;;37.03;23.95;;;;;;;19.84;51.71;99500.75;5062946;28;20052;-65
2023/01/31 09:37:10;;;;;;;36.10;24.05;;;;;;;19.80;51.30;99509.50;5063683;28;20110;-66
2023/01/31 09:39:46;;;;;;;34.70;24.00;;;;;;;19.64;51.96;99513.69;5060724;28;20060;-68
2023/01/31 09:42:47;;;;;;;43.22;23.88;;;;;;;19.73;51.00;99498.88;5064006;28;20060;-65
2023/01/31 09:45:36;;;;;;;33.22;22.67;;;;;;;19.85;50.39;99493.50;5063674;28;20522;-66
2023/01/31 09:48:38;;;;;;;39.50;24.33;;;;;;;19.83;50.39;99490.22;5066821;28;20053;-66
2023/01/31 09:51:16;;;;;;;35.75;23.80;;;;;;;19.79;51.20;99489.03;5062881;28;20056;-67
2023/01/31 09:54:22;;;;;;;38.05;23.13;;;;;;;19.70;50.20;99475.94;5063817;28;20052;-64
2023/01/31 09:57:22;;;;;;;34.72;22.98;;;;;;;19.66;50.46;99482.03;5062944;28;20118;-66
2023/01/31 10:00:32;;;;;;;34.67;22.35;;;;;;;19.44;50.51;99481.75;5066516;28;20052;-65
2023/01/31 10:03:37;;;;;;;33.92;21.95;;;;;;;19.42;50.72;99483.03;5065749;28;20055;-65
2023/01/31 10:06:47;;;;;;;35.03;22.65;;;;;;;19.38;50.97;99473.78;5064953;28;20041;-65
2023/01/31 10:09:50;;;;;;;38.42;22.63;;;;;;;19.28;49.67;99474.34;5067251;28;20056;-65
2023/01/31 10:12:56;;;;;;;36.55;21.52;;;;;;;19.27;51.30;99465.47;5067167;28;20056;-64
2023/01/31 10:16:02;;;;;;;30.00;20.83;;;;;;;19.17;49.46;99459.00;5067142;28;20571;-64
2023/01/31 10:18:55;;;;;;;33.03;20.70;;;;;;;19.11;50.82;99468.81;5066342;28;20048;-66
2023/01/31 10:22:00;;;;;;;37.85;22.08;;;;;;;19.17;51.48;99472.44;5087997;28;20562;-66
2023/01/31 10:24:48;;;;;;;36.90;21.65;;;;;;;19.14;51.89;99471.03;5083829;28;20044;-67
2023/01/31 10:27:51;;;;;;;35.72;21.90;;;;;;;19.05;51.09;99464.34;5085643;28;20063;-65
2023/01/31 10:30:44;;;;;;;31.02;20.88;;;;;;;18.99;50.89;99472.47;5085447;28;20225;-65
2023/01/31 10:33:49;;;;;;;29.40;19.50;;;;;;;18.97;50.10;99466.53;5078596;28;20048;-64
2023/01/31 10:36:37;;;;;;;36.40;21.15;;;;;;;18.91;50.75;99457.50;5076202;28;20495;-65
2023/01/31 10:39:43;;;;;;;31.17;21.40;;;;;;;18.95;52.09;99460.56;5077185;28;20044;-65
2023/01/31 10:42:31;;;;;;;32.13;19.92;;;;;;;18.93;51.17;99473.41;5077270;28;20098;-64
2023/01/31 10:45:29;;;;;;;35.78;21.13;;;;;;;19.00;50.48;99458.00;5067675;28;20044;-64
2023/01/31 10:48:26;;;;;;;31.48;20.45;;;;;;;18.83;51.16;99458.66;5086626;28;20048;-65
2023/01/31 10:51:33;;;;;;;30.98;22.40;;;;;;;18.75;51.99;99458.16;5082511;28;20477;-66
2023/01/31 10:54:53;;;;;;;36.45;23.50;;;;;;;18.79;53.02;99462.84;5079049;28;20044;-66
2023/01/31 10:57:36;;;;;;;39.25;24.63;;;;;;;18.76;52.83;99467.84;5083692;28;20043;-66
2023/01/31 11:00:38;;;;;;;33.53;22.30;;;;;;;18.68;53.25;99458.22;5074257;28;20052;-66
2023/01/31 11:03:21;;;;;;;38.72;24.08;;;;;;;18.70;53.12;99461.53;5081816;28;20113;-66
2023/01/31 11:06:09;;;;;;;34.88;22.33;;;;;;;18.66;53.53;99454.97;5081120;28;20483;-66
2023/01/31 11:09:10;;;;;;;34.67;21.33;;;;;;;18.62;52.96;99455.66;5080019;28;20135;-65
2023/01/31 11:11:57;;;;;;;31.70;21.95;;;;;;;18.54;52.26;99461.31;5078617;28;20048;-64
2023/01/31 11:15:05;;;;;;;37.67;20.48;;;;;;;18.40;52.10;99456.09;5083858;28;20538;-64
2023/01/31 11:17:50;;;;;;;30.58;20.17;;;;;;;18.36;51.96;99449.53;5068515;28;20577;-65
2023/01/31 11:20:53;;;;;;;31.60;20.73;;;;;;;18.33;51.70;99444.59;5082807;28;20044;-65
2023/01/31 11:23:33;;;;;;;36.20;21.80;;;;;;;18.24;52.46;99443.25;5085829;28;20048;-64
2023/01/31 11:26:31;;;;;;;38.20;21.92;;;;;;;18.18;52.85;99438.00;5085739;28;20036;-65
2023/01/31 11:29:23;;;;;;;36.72;21.05;;;;;;;18.20;53.46;99433.22;5085663;28;20044;-65
2023/01/31 11:32:19;;;;;;;39.28;21.90;;;;;;;18.08;53.12;99432.31;5084501;28;20098;-64
2023/01/31 11:35:27;;;;;;;35.35;20.35;;;;;;;18.01;53.14;99427.03;5085739;28;20071;-64
2023/01/31 11:38:27;;;;;;;33.47;20.27;;;;;;;17.92;54.68;99423.81;5086093;28;20119;-66
2023/01/31 11:41:26;;;;;;;30.07;20.00;;;;;;;17.83;55.14;99418.97;5086314;28;20052;-67
2023/01/31 11:44:18;;;;;;;33.38;19.38;;;;;;;17.78;54.35;99411.59;5085295;28;20105;-65
2023/01/31 11:47:18;;;;;;;34.10;20.33;;;;;;;17.65;54.00;99417.09;5086566;28;20400;-66
2023/01/31 11:50:28;;;;;;;32.40;20.38;;;;;;;17.66;53.78;99424.06;5085732;28;20178;-66
2023/01/31 11:53:16;;;;;;;30.42;20.05;;;;;;;17.59;54.58;99417.97;5084379;28;20048;-66
2023/01/31 11:56:23;;;;;;;35.08;20.58;;;;;;;17.62;55.06;99417.50;5106413;28;20154;-66
2023/01/31 11:59:10;;;;;;;33.63;19.92;;;;;;;17.51;54.70;99411.00;5086597;28;20078;-66
2023/01/31 12:02:00;;;;;;;31.98;18.98;;;;;;;17.49;55.16;99406.88;5083400;28;20047;-66
2023/01/31 12:04:48;;;;;;;30.27;18.98;;;;;;;17.39;54.62;99417.31;5068107;28;20092;-66
2023/01/31 12:07:56;;;;;;;33.15;19.58;;;;;;;17.26;54.74;99417.41;5071964;28;20139;-66
2023/01/31 12:10:50;;;;;;;29.10;18.25;;;;;;;17.21;54.84;99410.03;5085903;28;20044;-67
2023/01/31 12:13:50;;;;;;;35.13;19.33;;;;;;;17.14;55.50;99398.53;5082819;28;20732;-66
2023/01/31 12:16:36;;;;;;;26.67;17.23;;;;;;;17.13;57.26;99406.81;5069315;28;20044;-65
2023/01/31 12:19:55;;;;;;;29.90;18.30;;;;;;;16.99;56.73;99409.53;5064706;28;20505;-65
2023/01/31 12:23:14;;;;;;;32.72;19.13;;;;;;;16.89;57.91;99401.19;5064224;28;20056;-65
2023/01/31 12:26:34;;;;;;;34.10;19.52;;;;;;;16.78;57.90;99398.38;5084264;28;20040;-67
2023/01/31 12:29:51;;;;;;;35.15;19.40;;;;;;;16.81;58.81;99397.94;5053276;28;20054;-62
2023/01/31 12:32:51;;;;;;;34.45;19.60;;;;;;;16.70;59.46;99402.13;5065600;28;20044;-61
2023/01/31 12:35:43;;;;;;;34.40;19.23;;;;;;;16.70;59.72;99396.78;5062517;28;20052;-63
2023/01/31 12:39:06;;;;;;;30.92;19.65;;;;;;;16.71;59.93;99401.09;5075867;28;20143;-64
2023/01/31 12:42:33;;;;;;;31.23;19.80;;;;;;;16.51;60.36;99397.66;5064055;28;20048;-62
2023/01/31 12:45:30;;;;;;;33.80;20.75;;;;;;;16.52;60.75;99399.31;5091171;28;20055;-61
2023/01/31 12:49:00;;;;;;;34.40;20.27;;;;;;;16.55;61.00;99401.56;5077726;28;20106;-61
2023/01/31 12:51:58;;;;;;;32.95;20.75;;;;;;;16.50;60.82;99398.72;5011324;28;20050;-63
2023/01/31 12:54:55;;;;;;;;;;;;;;;16.53;61.54;99393.75;5076382;28;20736;-64
2023/01/31 12:57:43;;;;;;;36.53;20.48;;;;;;;16.45;61.47;99399.34;5076089;28;20347;-60
2023/01/31 13:00:54;;;;;;;47.63;22.48;;;;;;;16.45;62.47;99399.34;5081424;28;20159;-64
2023/01/31 13:03:38;;;;;;;;;;;;;;;16.36;62.33;99408.66;5070991;28;20048;-60
2023/01/31 13:06:56;;;;;;;39.17;22.25;;;;;;;16.41;62.79;99402.66;5076338;28;19927;-61
2023/01/31 13:09:38;;;;;;;44.58;24.90;;;;;;;16.41;62.37;99408.84;5076196;28;20059;-58
2023/01/31 13:12:34;;;;;;;33.00;21.27;;;;;;;16.38;63.05;99413.75;5074480;28;20044;-60
2023/01/31 13:15:46;;;;;;;45.58;22.83;;;;;;;16.50;63.02;99407.56;5079116;28;20051;-61
2023/01/31 13:18:40;;;;;;;44.22;24.38;;;;;;;16.50;62.93;99404.88;5064879;28;20133;-59